Relevés horaires Beauvechain (Belgique)


Relevés horaires à Beauvechain - Samedi 13 Août 2016
Heure UTC1 Température [°C] Vent [km/h] Hum. [%] Pres.4 [hPa] Visi. [Km] Nébu. [octa] Préc.5 [mm] Cond.
2m. Res. Ros. Dir.2 Vit. Moy. Raf.3
23:00 16.7 16.7 14.2 NNO 1.9 1.9 1.9 85 1023.2(0.1/3h) 20 -- -- --
22:00 16.7 16.7 14.3 NNO 1.9 0.0 0.0 86 1023.2(0.5/3h) 20 -- -- --
21:00 17.4 17.4 14.3 NNO 1.9 0.0 0.0 82 1023.2(0.5/3h) 20 -- -- --
20:00 18.0 18.0 14.6 N 3.7 5.6 9.3 81 1023(0.4/3h) 20 -- -- --
19:00 20.4 20.4 14.4 NNO 1.9 3.7 5.6 68 1022.6(0.1/3h) 20 -- -- --
18:00 22.6 22.6 14.3 NNO 3.7 0.0 0.0 59 1022.3(-0.1/3h) 20 -- 0/0h
--
17:00 23.2 23.2 14.2 O 5.6 7.4 11.1 57 1022.2(-0.3/3h) 20 -- -- --
16:00 23.4 23.4 14.2 O 5.6 7.4 11.1 56 1022.2(-0.5/3h) 20 -- -- --
15:00 22.7 22.7 14.6 O 7.4 0.0 0.0 60 1022.5(-0.5/3h) 20 -- -- --
14:00 23.1 23.1 15.3 O 7.4 9.3 14.8 62 1022.7(-0.6/3h) 20 -- -- --
13:00 22.2 22.2 15.3 O 7.4 9.3 13.0 65 1022.8(-0.4/3h) 20 -- -- --
12:00 21.2 21.2 14.9 O 7.4 0.0 0.0 67 1023.2(-0.3/3h) 19 -- 0/0h
--
11:00 20.4 20.4 14.8 OSO 7.4 7.4 13.0 70 1023.3(-0.2/3h) 20 -- -- --
10:00 18.3 18.3 14.6 OSO 7.4 9.3 16.7 79 1023.6(0.0/3h) 16 -- -- --
09:00 16.5 16.5 13.6 OSO 7.4 0.0 0.0 83 1023.7(0.2/3h) 13 -- -- --
08:00 15.0 15 13.1 OSO 7.4 7.4 11.1 88 1024(0.7/3h) 13 -- -- --
07:00 14.5 14.5 13.2 SO 5.6 9.3 11.1 92 1023.7(0.3/3h) 9 -- -- --
06:00 13.6 13 12.6 SO 9.3 0.0 0.0 94 1023.7(0.4/3h) 5 -- 0/0h
--
05:00 12.8 12.8 11.2 SSO 5.6 5.6 7.4 90 1023.3(0.0/3h) 15 -- -- --
04:00 13.1 13.1 10.9 SSO 5.6 7.4 7.4 86 1023.5(0.2/3h) 20 -- -- --
03:00 13.8 13.6 10.3 SO 7.4 0.0 0.0 79 1023.2(-0.4/3h) 20 -- -- --
02:00 14.6 14.6 11.0 SO 5.6 7.4 11.1 79 1023.2(-0.5/3h) 20 -- -- --
01:00 16.0 16.0 13.1 SO 7.4 7.4 9.3 83 1023(-0.8/3h) 20 -- -- --
00:00 17.2 17.2 14.3 SO 5.6 0.0 0.0 83 1023.5(-0.6/3h) 20 -- 0/0h
--

1 Coordinated Universal Time. Actuellement il est 20:00 locale et 19:00 UTC.

2 Le vent souffle depuis la direction indiquée vers la direction oposée.

3 Les rafales max. sont disponible 40 min après l'heure du relevé.

4 Pour les stations d'altitude (plus de 600m) le géopotentiel du niveau le plus proche de la pression obligatoire est indiqué.

5 Les stations disposant d'un diffuseur peuvent indiquer "trace". Cela signifie que des précipitations ont touchés le sol mais que la quantité est inférieure à 0.1 mm.

Récapitulatif de la journée
Température [°C] Vent [km/h] Ensoleillement4 [h] Precipitations totale5 [mm] Pression [Hpa]
Min1 Max.2 Moy.3 Max. Min Max.
12.7 23.7 4.4 16.7 0 h 0 min 0 1022.2 1024.0

1 Température minimale relevée entre 18:00 UTC la veille et 18:00 UTC le jour donné.

2 Température maximale relevée entre 06:00 UTC le jour donné et 06:00 UTC le lendemain.

3 Vent moyen de la journée basé sur les relevés horaires.

4 Ensoleillement en heures relevé entre 06:00 UTC la veille et 06:00 UTC le jour donné.

5 Précipitations totales tombées entre 06:00 UTC la jour donné et 06:00 UTC le lendemain.

Graphiques horaires